createdAt,value
2022-11-05T00:02:22.960Z,101336.47
2022-11-05T00:05:07.866Z,101348.94
2022-11-05T00:08:06.511Z,101353.94
2022-11-05T00:10:36.573Z,101352.63
2022-11-05T00:13:22.279Z,101356.94
2022-11-05T00:16:07.004Z,101358.09
2022-11-05T00:18:33.369Z,101347.59
2022-11-05T00:20:59.707Z,101361.72
2022-11-05T00:23:44.702Z,101375.03
2022-11-05T00:26:11.545Z,101369.03
2022-11-05T00:28:40.719Z,101381.69
2022-11-05T00:31:14.228Z,101386.31
2022-11-05T00:33:42.990Z,101379.84
2022-11-05T00:36:10.943Z,101387.47
2022-11-05T00:38:37.422Z,101393.47
2022-11-05T00:41:04.613Z,101389.31
2022-11-05T00:43:49.769Z,101381.00
2022-11-05T00:46:16.125Z,101386.03
2022-11-05T00:49:01.379Z,101383.88
2022-11-05T00:51:27.795Z,101383.38
2022-11-05T00:53:54.193Z,101393.84
2022-11-05T00:56:20.666Z,101399.19
2022-11-05T00:58:47.036Z,101407.16
2022-11-05T01:01:13.480Z,101395.72
2022-11-05T01:03:40.736Z,101395.38
2022-11-05T01:06:09.463Z,101403.19
2022-11-05T01:08:36.310Z,101394.75
2022-11-05T01:11:10.084Z,101374.41
2022-11-05T01:13:37.309Z,101381.44
2022-11-05T01:16:09.784Z,101370.91
2022-11-05T01:18:38.876Z,101389.06
2022-11-05T01:21:15.802Z,101388.06
2022-11-05T01:23:42.245Z,101382.91
2022-11-05T01:26:09.081Z,101382.06
2022-11-05T01:28:35.557Z,101390.41
2022-11-05T01:31:02.024Z,101393.06
2022-11-05T01:33:28.444Z,101395.38
2022-11-05T01:35:54.837Z,101392.03
2022-11-05T01:38:21.326Z,101377.88
2022-11-05T01:40:47.743Z,101389.50
2022-11-05T01:43:23.999Z,101386.63
2022-11-05T01:45:57.477Z,101385.00
2022-11-05T01:48:35.096Z,101388.16
2022-11-05T01:51:07.083Z,101388.16
2022-11-05T01:53:38.496Z,101388.63
2022-11-05T01:56:10.879Z,101387.31
2022-11-05T01:58:48.858Z,101379.94
2022-11-05T02:01:16.211Z,101382.59
2022-11-05T02:03:44.492Z,101378.28
2022-11-05T02:06:11.817Z,101384.44
2022-11-05T02:08:53.611Z,101400.44
2022-11-05T02:11:20.581Z,101396.84
2022-11-05T02:13:48.805Z,101399.34
2022-11-05T02:16:33.304Z,101399.72
2022-11-05T02:19:32.931Z,101399.22
2022-11-05T02:22:21.154Z,101401.53
2022-11-05T02:25:00.253Z,101399.22
2022-11-05T02:27:50.556Z,101399.53
2022-11-05T02:30:53.716Z,101401.72
2022-11-05T02:33:38.680Z,101405.88
2022-11-05T02:36:10.900Z,101406.06
2022-11-05T02:38:50.555Z,101409.88
2022-11-05T02:41:35.656Z,101403.91
2022-11-05T02:44:24.009Z,101389.75
2022-11-05T02:46:59.209Z,101388.41
2022-11-05T02:49:47.795Z,101384.41
2022-11-05T02:52:21.490Z,101388.22
2022-11-05T02:55:11.776Z,101376.09
2022-11-05T02:57:44.678Z,101380.41
2022-11-05T03:00:39.441Z,101383.06
2022-11-05T03:03:12.240Z,101357.75
2022-11-05T03:06:34.657Z,101378.41
2022-11-05T03:09:38.619Z,101371.75
2022-11-05T03:12:26.635Z,101372.09
2022-11-05T03:15:07.975Z,101379.75
2022-11-05T03:18:02.261Z,101366.09
2022-11-05T03:20:43.542Z,101379.75
2022-11-05T03:23:25.417Z,101365.63
2022-11-05T03:26:04.256Z,101373.44
2022-11-05T03:28:34.642Z,101374.91
2022-11-05T03:31:02.318Z,101384.41
2022-11-05T03:33:33.750Z,101378.94
2022-11-05T03:36:05.708Z,101371.41
2022-11-05T03:38:36.368Z,101384.41
2022-11-05T03:41:10.150Z,101388.25
2022-11-05T03:43:41.981Z,101374.41
2022-11-05T03:46:15.507Z,101371.59
2022-11-05T03:48:47.250Z,101384.41
2022-11-05T03:51:23.341Z,101385.41
2022-11-05T03:53:55.528Z,101381.91
2022-11-05T03:56:49.019Z,101386.91
2022-11-05T03:59:16.986Z,101383.25
2022-11-05T04:01:44.105Z,101383.25
2022-11-05T04:04:10.553Z,101387.06
2022-11-05T04:06:55.640Z,101391.06
2022-11-05T04:09:42.442Z,101391.06
2022-11-05T04:12:29.317Z,101392.88
2022-11-05T04:14:55.740Z,101391.25
2022-11-05T04:17:22.199Z,101382.75
2022-11-05T04:20:07.253Z,101388.91
2022-11-05T04:22:54.020Z,101388.56
2022-11-05T04:25:22.026Z,101397.06
2022-11-05T04:27:48.631Z,101396.06
2022-11-05T04:30:20.285Z,101392.38
2022-11-05T04:32:56.580Z,101397.56
2022-11-05T04:35:23.054Z,101393.22
2022-11-05T04:37:49.828Z,101402.38
2022-11-05T04:40:16.243Z,101402.72
2022-11-05T04:42:42.588Z,101396.41
2022-11-05T04:45:09.046Z,101397.72
2022-11-05T04:47:35.410Z,101404.03
2022-11-05T04:50:02.079Z,101407.38
2022-11-05T04:52:28.759Z,101413.53
2022-11-05T04:54:55.186Z,101414.53
2022-11-05T04:57:21.559Z,101411.06
2022-11-05T04:59:49.520Z,101408.06
2022-11-05T05:02:16.041Z,101426.34
2022-11-05T05:04:42.488Z,101424.03
2022-11-05T05:07:08.844Z,101418.38
2022-11-05T05:09:35.372Z,101421.84
2022-11-05T05:12:02.577Z,101420.34
2022-11-05T05:14:29.068Z,101414.03
2022-11-05T05:16:55.468Z,101413.00
2022-11-05T05:19:23.612Z,101411.19
2022-11-05T05:21:49.975Z,101416.69
2022-11-05T05:24:19.021Z,101400.19
2022-11-05T05:26:50.920Z,101397.69
2022-11-05T05:29:18.132Z,101416.66
2022-11-05T05:31:45.120Z,101422.97
2022-11-05T05:34:13.383Z,101410.00
2022-11-05T05:36:40.295Z,101425.16
2022-11-05T05:39:08.526Z,101424.31
2022-11-05T05:41:34.892Z,101415.31
2022-11-05T05:44:01.422Z,101418.31
2022-11-05T05:46:27.884Z,101423.13
2022-11-05T05:48:54.363Z,101422.97
2022-11-05T05:51:20.774Z,101423.31
2022-11-05T05:53:47.234Z,101424.66
2022-11-05T05:56:19.296Z,101423.13
2022-11-05T05:58:46.022Z,101428.63
2022-11-05T06:01:19.401Z,101411.63
2022-11-05T06:03:47.438Z,101420.13
2022-11-05T06:06:15.401Z,101424.75
2022-11-05T06:08:42.493Z,101437.44
2022-11-05T06:11:09.375Z,101430.59
2022-11-05T06:13:36.443Z,101442.56
2022-11-05T06:16:08.326Z,101435.41
2022-11-05T06:18:35.010Z,101435.94
2022-11-05T06:21:07.225Z,101440.75
2022-11-05T06:23:35.237Z,101444.59
2022-11-05T06:26:06.438Z,101437.09
2022-11-05T06:28:33.609Z,101438.75
2022-11-05T06:31:00.659Z,101442.94
2022-11-05T06:33:27.697Z,101450.59
2022-11-05T06:35:54.881Z,101444.94
2022-11-05T06:38:21.248Z,101448.28
2022-11-05T06:40:47.739Z,101451.94
2022-11-05T06:43:14.471Z,101443.28
2022-11-05T06:45:41.104Z,101451.94
2022-11-05T06:48:07.631Z,101436.63
2022-11-05T06:50:34.005Z,101454.28
2022-11-05T06:53:02.464Z,101452.94
2022-11-05T06:55:30.721Z,101443.47
2022-11-05T06:57:57.435Z,101462.28
2022-11-05T07:00:24.352Z,101452.28
2022-11-05T07:02:50.868Z,101458.59
2022-11-05T07:05:17.663Z,101462.28
2022-11-05T07:07:45.449Z,101468.13
2022-11-05T07:10:15.373Z,101469.94
2022-11-05T07:12:42.181Z,101470.09
2022-11-05T07:15:09.883Z,101470.09
2022-11-05T07:17:36.292Z,101475.25
2022-11-05T07:20:03.841Z,101468.78
2022-11-05T07:22:30.304Z,101459.44
2022-11-05T07:24:56.676Z,101460.78
2022-11-05T07:27:23.222Z,101468.28
2022-11-05T07:29:49.642Z,101474.59
2022-11-05T07:32:16.144Z,101467.44
2022-11-05T07:34:43.834Z,101469.94
2022-11-05T07:37:10.312Z,101459.97
2022-11-05T07:39:36.705Z,101471.47
2022-11-05T07:42:03.448Z,101468.63
2022-11-05T07:44:29.918Z,101472.13
2022-11-05T07:46:56.332Z,101465.34
2022-11-05T07:49:23.783Z,101458.00
2022-11-05T07:51:50.201Z,101458.00
2022-11-05T07:54:16.605Z,101445.50
2022-11-05T07:56:42.971Z,101452.00
2022-11-05T07:59:09.367Z,101445.69
2022-11-05T08:01:35.836Z,101447.19
2022-11-05T08:04:02.400Z,101447.84
2022-11-05T08:06:28.781Z,101449.03
2022-11-05T08:08:55.176Z,101447.00
2022-11-05T08:11:21.686Z,101448.50
2022-11-05T08:13:48.108Z,101452.66
2022-11-05T08:16:15.495Z,101456.16
2022-11-05T08:18:41.950Z,101464.47
2022-11-05T08:21:09.525Z,101463.31
2022-11-05T08:23:36.068Z,101454.31
2022-11-05T08:26:03.833Z,101460.28
2022-11-05T08:28:30.555Z,101459.66
2022-11-05T08:30:57.791Z,101467.97
2022-11-05T08:33:25.175Z,101457.47
2022-11-05T08:35:51.867Z,101457.97
2022-11-05T08:38:19.637Z,101461.13
2022-11-05T08:40:55.054Z,101445.78
2022-11-05T08:43:22.202Z,101474.16
2022-11-05T08:45:48.936Z,101468.13
2022-11-05T08:48:17.561Z,101475.59
2022-11-05T08:50:45.788Z,101472.94
2022-11-05T08:53:13.528Z,101472.94
2022-11-05T08:55:41.774Z,101474.75
2022-11-05T08:58:16.060Z,101476.25
2022-11-05T09:00:45.605Z,101486.00
2022-11-05T09:03:12.539Z,101486.84
2022-11-05T09:05:40.164Z,101485.81
2022-11-05T09:08:12.748Z,101488.25
2022-11-05T09:10:40.709Z,101485.72
2022-11-05T09:13:09.640Z,101483.75
2022-11-05T09:15:41.123Z,101478.13
2022-11-05T09:18:11.691Z,101487.47
2022-11-05T09:20:39.814Z,101492.00
2022-11-05T09:23:11.003Z,101477.50
2022-11-05T09:25:37.757Z,101488.03
2022-11-05T09:28:16.412Z,101493.38
2022-11-05T09:30:48.832Z,101482.69
2022-11-05T09:33:18.454Z,101485.69
2022-11-05T09:35:46.031Z,101485.81
2022-11-05T09:38:12.892Z,101484.19
2022-11-05T09:41:00.619Z,101487.09
2022-11-05T09:43:55.978Z,101493.59
2022-11-05T09:46:25.506Z,101490.19
2022-11-05T09:49:05.273Z,101480.13
2022-11-05T09:51:33.086Z,101490.38
2022-11-05T09:54:01.020Z,101481.09
2022-11-05T09:56:30.815Z,101489.59
2022-11-05T09:59:08.815Z,101489.09
2022-11-05T10:01:37.842Z,101483.44
2022-11-05T10:04:12.647Z,101484.25
2022-11-05T10:06:48.373Z,101482.09
2022-11-05T10:09:27.930Z,101477.41
2022-11-05T10:12:19.130Z,101476.72
2022-11-05T10:15:05.926Z,101474.13
2022-11-05T10:17:39.042Z,101476.56
2022-11-05T10:20:09.737Z,101490.50
2022-11-05T10:22:37.093Z,101482.34
2022-11-05T10:25:16.062Z,101477.09
2022-11-05T10:27:47.941Z,101480.66
2022-11-05T10:30:15.170Z,101466.47
2022-11-05T10:32:44.229Z,101474.13
2022-11-05T10:35:18.436Z,101479.44
2022-11-05T10:37:50.472Z,101470.31
2022-11-05T10:40:35.660Z,101471.50
2022-11-05T10:43:07.284Z,101460.59
2022-11-05T10:45:47.562Z,101454.34
2022-11-05T10:48:24.763Z,101452.81
2022-11-05T10:50:51.184Z,101445.63
2022-11-05T10:53:27.477Z,101432.19
2022-11-05T10:55:54.617Z,101437.41
2022-11-05T10:58:26.794Z,101465.00
2022-11-05T11:00:53.447Z,101456.88
2022-11-05T11:03:49.006Z,101454.38
2022-11-05T11:06:29.679Z,101446.31
2022-11-05T11:08:58.391Z,101443.44
2022-11-05T11:11:28.995Z,101459.56
2022-11-05T11:14:01.346Z,101471.28
2022-11-05T11:16:33.401Z,101451.56
2022-11-05T11:19:03.036Z,101471.09
2022-11-05T11:21:31.450Z,101457.47
2022-11-05T11:24:03.246Z,101453.53
2022-11-05T11:26:36.329Z,101454.00
2022-11-05T11:29:14.239Z,101446.53
2022-11-05T11:31:41.892Z,101449.22
2022-11-05T11:34:23.692Z,101445.91
2022-11-05T11:36:54.023Z,101457.41
2022-11-05T11:39:25.913Z,101424.66
2022-11-05T11:41:57.404Z,101457.59
2022-11-05T11:44:30.503Z,101459.63
2022-11-05T11:47:02.058Z,101459.66
2022-11-05T11:49:49.208Z,101468.16
2022-11-05T11:52:19.461Z,101460.31
2022-11-05T11:54:45.882Z,101470.59
2022-11-05T11:57:24.976Z,101438.88
2022-11-05T12:00:08.396Z,101469.00
2022-11-05T12:02:58.848Z,101476.56
2022-11-05T12:05:56.094Z,101458.38
2022-11-05T12:08:45.312Z,101452.28
2022-11-05T12:11:30.716Z,101452.94
2022-11-05T12:14:46.244Z,101448.09
2022-11-05T12:17:32.815Z,101447.25
2022-11-05T12:20:24.320Z,101446.66
2022-11-05T12:23:13.273Z,101441.97
2022-11-05T12:25:53.639Z,101441.06
2022-11-05T12:29:19.828Z,101437.47
2022-11-05T12:32:16.468Z,101440.78
2022-11-05T12:35:04.079Z,101431.38
2022-11-05T12:38:02.894Z,101428.63
2022-11-05T12:40:35.269Z,101433.50
2022-11-05T12:43:12.078Z,101432.69
2022-11-05T12:45:41.345Z,101431.50
2022-11-05T12:48:29.249Z,101416.16
2022-11-05T12:51:05.160Z,101422.44
2022-11-05T12:54:07.589Z,101397.69
2022-11-05T12:56:48.049Z,101404.22
2022-11-05T12:59:20.391Z,101397.56
2022-11-05T13:01:54.274Z,101397.13
2022-11-05T13:04:34.148Z,101397.69
2022-11-05T13:07:05.269Z,101405.59
2022-11-05T13:09:42.546Z,101400.69
2022-11-05T13:12:14.591Z,101389.00
2022-11-05T13:14:47.399Z,101389.25
2022-11-05T13:17:24.255Z,101385.72
2022-11-05T13:20:17.944Z,101392.75
2022-11-05T13:22:50.745Z,101388.59
2022-11-05T13:25:21.453Z,101387.94
2022-11-05T13:27:53.525Z,101384.81
2022-11-05T13:30:23.541Z,101389.38
2022-11-05T13:33:10.720Z,101382.25
2022-11-05T13:35:44.006Z,101381.63
2022-11-05T13:38:39.251Z,101398.97
2022-11-05T13:41:27.302Z,101390.09
2022-11-05T13:44:10.293Z,101399.34
2022-11-05T13:47:11.897Z,101397.88
2022-11-05T13:49:38.280Z,101386.50
2022-11-05T13:52:25.658Z,101386.44
2022-11-05T13:55:01.157Z,101383.31
2022-11-05T13:58:02.812Z,101383.88
2022-11-05T14:00:36.990Z,101390.06
2022-11-05T14:03:16.782Z,101384.91
2022-11-05T14:05:43.547Z,101377.81
2022-11-05T14:08:21.177Z,101379.63
2022-11-05T14:11:19.738Z,101381.69
2022-11-05T14:13:50.222Z,101377.34
2022-11-05T14:16:19.289Z,101386.03
2022-11-05T14:18:53.612Z,101380.66
2022-11-05T14:21:25.808Z,101389.88
2022-11-05T14:23:58.145Z,101366.00
2022-11-05T14:26:34.996Z,101349.19
2022-11-05T14:29:04.442Z,101384.25
2022-11-05T14:32:08.429Z,101387.97
2022-11-05T14:35:04.215Z,101387.31
2022-11-05T14:37:36.814Z,101387.50
2022-11-05T14:40:28.917Z,101372.19
2022-11-05T14:42:58.916Z,101371.63
2022-11-05T14:45:28.189Z,101373.94
2022-11-05T14:47:58.135Z,101370.97
2022-11-05T14:50:31.613Z,101373.66
2022-11-05T14:53:04.645Z,101373.84
2022-11-05T14:55:40.078Z,101367.19
2022-11-05T14:58:27.070Z,101373.00
2022-11-05T15:00:54.320Z,101375.84
2022-11-05T15:03:28.956Z,101372.16
2022-11-05T15:06:22.114Z,101375.19
2022-11-05T15:08:48.567Z,101375.56
2022-11-05T15:11:21.726Z,101378.25
2022-11-05T15:14:03.433Z,101377.78
2022-11-05T15:16:35.013Z,101371.78
2022-11-05T15:19:03.106Z,101367.00
2022-11-05T15:21:34.380Z,101365.88
2022-11-05T15:24:03.750Z,101366.53
2022-11-05T15:26:52.849Z,101368.38
2022-11-05T15:29:24.695Z,101370.56
2022-11-05T15:31:51.669Z,101367.91
2022-11-05T15:34:31.910Z,101364.84
2022-11-05T15:37:10.467Z,101366.91
2022-11-05T15:39:48.168Z,101353.78
2022-11-05T15:42:18.879Z,101371.59
2022-11-05T15:44:47.483Z,101367.63
2022-11-05T15:47:15.813Z,101370.56
2022-11-05T15:49:45.116Z,101360.81
2022-11-05T15:52:17.292Z,101361.63
2022-11-05T15:54:44.173Z,101358.94
2022-11-05T15:57:29.713Z,101350.50
2022-11-05T15:59:56.166Z,101352.13
2022-11-05T16:02:29.683Z,101347.44
2022-11-05T16:04:57.593Z,101353.59
2022-11-05T16:07:24.659Z,101354.91
2022-11-05T16:09:58.509Z,101356.75
2022-11-05T16:12:32.176Z,101360.81
2022-11-05T16:15:04.923Z,101350.50
2022-11-05T16:17:53.356Z,101344.03
2022-11-05T16:20:23.285Z,101346.31
2022-11-05T16:22:58.801Z,101331.66
2022-11-05T16:25:30.434Z,101337.66
2022-11-05T16:27:58.571Z,101339.97
2022-11-05T16:30:25.605Z,101333.84
2022-11-05T16:32:52.715Z,101337.00
2022-11-05T16:35:25.329Z,101328.34
2022-11-05T16:37:52.762Z,101330.66
2022-11-05T16:40:21.804Z,101331.50
2022-11-05T16:42:51.355Z,101329.53
2022-11-05T16:45:20.799Z,101336.38
2022-11-05T16:47:47.662Z,101327.88
2022-11-05T16:50:26.615Z,101329.16
2022-11-05T16:52:53.181Z,101322.00
2022-11-05T16:55:20.302Z,101331.19
2022-11-05T16:57:51.589Z,101329.91
2022-11-05T17:00:20.105Z,101323.53
2022-11-05T17:02:47.107Z,101319.41
2022-11-05T17:05:28.856Z,101330.91
2022-11-05T17:07:56.332Z,101338.28
2022-11-05T17:10:24.942Z,101335.44
2022-11-05T17:12:51.726Z,101343.00
2022-11-05T17:15:29.499Z,101340.78
2022-11-05T17:17:56.817Z,101348.63
2022-11-05T17:20:41.116Z,101339.47
2022-11-05T17:23:16.986Z,101359.31
2022-11-05T17:25:46.713Z,101354.50
2022-11-05T17:28:14.278Z,101362.34
2022-11-05T17:30:41.889Z,101370.84
2022-11-05T17:33:11.160Z,101353.78
2022-11-05T17:35:39.876Z,101349.78
2022-11-05T17:38:06.307Z,101357.19
2022-11-05T17:40:34.545Z,101362.34
2022-11-05T17:43:01.487Z,101340.69
2022-11-05T17:45:27.962Z,101361.50
2022-11-05T17:47:54.610Z,101354.31
2022-11-05T17:50:22.362Z,101348.81
2022-11-05T17:52:48.782Z,101325.28
2022-11-05T17:55:18.131Z,101340.78
2022-11-05T17:57:49.618Z,101348.16
2022-11-05T18:00:19.152Z,101312.75
2022-11-05T18:02:47.226Z,101322.78
2022-11-05T18:05:14.386Z,101324.09
2022-11-05T18:07:41.081Z,101326.78
2022-11-05T18:10:08.128Z,101323.06
2022-11-05T18:12:34.712Z,101316.91
2022-11-05T18:15:02.195Z,101311.91
2022-11-05T18:17:28.589Z,101311.91
2022-11-05T18:19:54.975Z,101306.94
2022-11-05T18:22:23.026Z,101314.59
2022-11-05T18:24:52.035Z,101308.63
2022-11-05T18:27:18.519Z,101304.09
2022-11-05T18:29:46.236Z,101280.41
2022-11-05T18:32:12.802Z,101290.72
2022-11-05T18:34:39.352Z,101299.13
2022-11-05T18:37:05.727Z,101284.81
2022-11-05T18:39:32.290Z,101296.81
2022-11-05T18:41:58.729Z,101281.81
2022-11-05T18:44:25.357Z,101241.69
2022-11-05T18:46:57.779Z,101279.41
2022-11-05T18:49:25.490Z,101274.41
2022-11-05T18:51:51.988Z,101285.75
2022-11-05T18:54:18.455Z,101270.09
2022-11-05T18:56:45.677Z,101270.94
2022-11-05T19:02:04.220Z,101277.75
2022-11-05T19:04:30.771Z,101269.06
2022-11-05T19:07:01.711Z,101262.53
2022-11-05T19:09:31.373Z,101256.81
2022-11-05T19:11:57.991Z,101252.50
2022-11-05T19:14:24.462Z,101244.84
2022-11-05T19:16:50.858Z,101250.03
2022-11-05T19:19:17.365Z,101239.50
2022-11-05T19:21:44.506Z,101232.31
2022-11-05T19:24:16.862Z,101246.97
2022-11-05T19:26:43.755Z,101231.31
2022-11-05T19:29:10.834Z,101232.97
2022-11-05T19:31:37.330Z,101232.31
2022-11-05T19:34:05.502Z,101229.28
2022-11-05T19:36:32.797Z,101235.00
2022-11-05T19:39:04.753Z,101239.16
2022-11-05T19:41:31.293Z,101236.28
2022-11-05T19:44:01.739Z,101234.16
2022-11-05T19:46:29.667Z,101249.00
2022-11-05T19:48:56.730Z,101222.66
2022-11-05T19:51:25.728Z,101226.97
2022-11-05T19:53:53.146Z,101220.97
2022-11-05T19:56:28.226Z,101217.31
2022-11-05T19:58:54.709Z,101214.81
2022-11-05T20:01:22.882Z,101214.63
2022-11-05T20:03:49.492Z,101213.16
2022-11-05T20:06:19.798Z,101211.13
2022-11-05T20:09:19.835Z,101192.25
2022-11-05T20:11:35.837Z,101214.38
2022-11-05T20:14:02.454Z,101218.50
2022-11-05T20:16:32.238Z,101218.88
2022-11-05T20:18:58.649Z,101215.53
2022-11-05T20:21:25.094Z,101215.53
2022-11-05T20:23:51.540Z,101213.91
2022-11-05T20:26:18.002Z,101212.22
2022-11-05T20:28:44.826Z,101215.53
2022-11-05T20:31:16.969Z,101228.06
2022-11-05T20:33:44.876Z,101220.06
2022-11-05T20:36:15.838Z,101218.59
2022-11-05T20:38:44.240Z,101226.59
2022-11-05T20:41:12.658Z,101231.75
2022-11-05T20:43:44.186Z,101218.41
2022-11-05T20:46:14.172Z,101216.56
2022-11-05T20:48:41.434Z,101223.38
2022-11-05T20:51:11.874Z,101220.69
2022-11-05T20:53:38.655Z,101215.53
2022-11-05T20:56:08.557Z,101212.03
2022-11-05T20:58:37.246Z,101205.31
2022-11-05T21:01:05.232Z,101203.88
2022-11-05T21:03:32.046Z,101204.03
2022-11-05T21:05:59.945Z,101204.31
2022-11-05T21:08:27.970Z,101220.06
2022-11-05T21:10:55.012Z,101208.75
2022-11-05T21:13:22.231Z,101217.56
2022-11-05T21:15:50.433Z,101213.44
2022-11-05T21:18:21.106Z,101207.91
2022-11-05T21:20:47.805Z,101210.75
2022-11-05T21:23:15.489Z,101202.47
2022-11-05T21:25:44.023Z,101200.44
2022-11-05T21:28:12.398Z,101189.97
2022-11-05T21:30:45.565Z,101181.09
2022-11-05T21:33:16.226Z,101191.59
2022-11-05T21:35:47.401Z,101177.22
2022-11-05T21:38:16.504Z,101182.56
2022-11-05T21:40:43.661Z,101186.91
2022-11-05T21:43:10.456Z,101188.56
2022-11-05T21:45:41.645Z,101199.06
2022-11-05T21:48:08.922Z,101200.91
2022-11-05T21:50:57.357Z,101191.88
2022-11-05T21:53:42.775Z,101203.41
2022-11-05T21:56:47.214Z,101190.84
2022-11-05T21:59:35.037Z,101192.72
2022-11-05T22:02:02.001Z,101191.31
2022-11-05T22:04:33.990Z,101190.50
2022-11-05T22:07:00.615Z,101185.97
2022-11-05T22:09:27.558Z,101201.19
2022-11-05T22:11:54.467Z,101188.00
2022-11-05T22:14:21.101Z,101188.84
2022-11-05T22:16:47.692Z,101197.03
2022-11-05T22:19:14.365Z,101177.69
2022-11-05T22:21:41.035Z,101184.50
2022-11-05T22:24:08.143Z,101166.00
2022-11-05T22:26:35.329Z,101169.28
2022-11-05T22:29:01.774Z,101172.81
2022-11-05T22:31:33.146Z,101158.97
2022-11-05T22:34:02.338Z,101155.94
2022-11-05T22:36:28.752Z,101150.16
2022-11-05T22:38:55.184Z,101129.53
2022-11-05T22:41:22.542Z,101145.63
2022-11-05T22:43:49.496Z,101146.94
2022-11-05T22:46:21.809Z,101142.25
2022-11-05T22:48:49.068Z,101137.88
2022-11-05T22:51:22.096Z,101147.56
2022-11-05T22:53:49.032Z,101143.41
2022-11-05T22:56:18.369Z,101135.97
2022-11-05T22:58:45.064Z,101140.75
2022-11-05T23:01:12.788Z,101142.41
2022-11-05T23:03:41.715Z,101148.56
2022-11-05T23:06:30.947Z,101144.44
2022-11-05T23:09:16.601Z,101129.59
2022-11-05T23:11:46.443Z,101140.75
2022-11-05T23:14:14.456Z,101150.97
2022-11-05T23:17:00.309Z,101145.63
2022-11-05T23:19:45.615Z,101144.81
2022-11-05T23:22:36.726Z,101149.31
2022-11-05T23:25:04.813Z,101139.63
2022-11-05T23:27:33.891Z,101148.50
2022-11-05T23:30:02.075Z,101131.63
2022-11-05T23:32:31.160Z,101138.00
2022-11-05T23:34:59.167Z,101115.16
2022-11-05T23:37:47.188Z,101123.00
2022-11-05T23:40:18.366Z,101130.16
2022-11-05T23:43:04.455Z,101135.31
2022-11-05T23:45:50.868Z,101120.94
2022-11-05T23:48:31.514Z,101129.59
2022-11-05T23:51:10.600Z,101128.78
2022-11-05T23:53:40.071Z,101128.59
2022-11-05T23:56:14.027Z,101112.13
2022-11-05T23:58:41.393Z,101127.59
